Time;durP1;ratioP1;P1;durP2;ratioP2;P2;SDS_P1;SDS_P2;PMS_P1;PMS_P2;Temp;Humidity;BMP_temperature;BMP_pressure;BME280_temperature;BME280_humidity;BME280_pressure;Samples;Min_cycle;Max_cycle;Signal;HPM_P1;HPM_P2
2022/12/14 00:00:39;;;;;;;;;30.75;27.50;;;;;-1.10;65.87;99084.78;4945313;28;45484;-89
2022/12/14 00:03:05;;;;;;;;;42.50;36.50;;;;;-0.50;65.83;99187.91;4961139;28;46679;-89
2022/12/14 00:05:30;;;;;;;;;36.75;34.50;;;;;-0.26;65.93;99226.03;4945748;28;45401;-90
2022/12/14 00:07:56;;;;;;;;;33.00;30.75;;;;;0.02;65.83;99271.16;4955602;28;45430;-87
2022/12/14 00:10:21;;;;;;;;;34.75;31.25;;;;;0.22;65.88;99325.75;4941284;28;45575;-89
2022/12/14 00:12:47;;;;;;;;;43.25;38.50;;;;;-0.48;66.14;99201.78;4941310;28;45502;-88
2022/12/14 00:15:12;;;;;;;;;35.00;32.25;;;;;0.24;65.41;99305.81;4941731;28;45520;-89
2022/12/14 00:17:38;;;;;;;;;33.00;31.25;;;;;0.06;65.55;99277.22;4939120;28;45416;-89
2022/12/14 00:20:04;;;;;;;;;34.25;29.25;;;;;-0.61;65.53;99156.72;4953831;28;45338;-90
2022/12/14 00:22:29;;;;;;;;;26.25;25.50;;;;;-1.57;66.17;98992.16;4938570;28;45339;-88
2022/12/14 00:24:55;;;;;;;;;33.25;28.25;;;;;0.30;66.01;99303.22;4943549;28;45374;-91
2022/12/14 00:27:21;;;;;;;;;26.50;24.50;;;;;-1.25;66.18;99042.38;4964159;28;45279;-92
2022/12/14 00:29:46;;;;;;;;;34.00;31.00;;;;;-0.84;66.00;99109.94;4949175;28;44898;-92
2022/12/14 00:32:12;;;;;;;;;27.25;27.25;;;;;-0.91;66.07;99080.53;4963782;28;47086;-91
2022/12/14 00:34:37;;;;;;;;;34.75;29.00;;;;;-0.56;65.88;99150.69;4965472;28;44779;-91
2022/12/14 00:37:03;;;;;;;;;30.50;26.25;;;;;-0.16;65.96;99195.78;4964290;28;45443;-91
2022/12/14 00:39:31;;;;;;;;;36.75;31.00;;;;;-0.45;65.63;99135.13;4958676;28;45673;-91
2022/12/14 00:45:19;;;;;;;;;40.00;33.25;;;;;-0.64;65.72;99100.47;4951944;28;45267;-90
2022/12/14 00:47:44;;;;;;;;;30.75;24.00;;;;;-0.04;66.24;99188.84;4969419;28;45334;-91
2022/12/14 00:50:10;;;;;;;;;32.00;31.75;;;;;0.06;65.89;99207.06;4931599;28;45010;-93
2022/12/14 00:52:35;;;;;;;;;32.75;30.75;;;;;-0.20;66.52;99167.22;4962166;28;46864;-91
2022/12/14 00:55:01;;;;;;;;;31.75;24.25;;;;;-0.19;65.93;99163.72;4961006;28;45298;-91
2022/12/14 00:57:28;;;;;;;;;34.50;30.25;;;;;0.44;66.00;99253.00;4940748;28;45340;-92
2022/12/14 00:59:55;;;;;;;;;36.25;31.50;;;;;0.29;66.63;99228.75;4944498;28;45260;-91
2022/12/14 01:02:20;;;;;;;;;34.50;30.50;;;;;-0.45;66.23;99113.50;4944803;28;47241;-92
2022/12/14 01:04:46;;;;;;;;;33.50;28.50;;;;;0.16;66.44;99217.44;4962535;28;45700;-92
2022/12/14 01:07:11;;;;;;;;;21.75;20.50;;;;;0.04;66.49;99175.88;4966335;28;45244;-91
2022/12/14 01:09:37;;;;;;;;;31.50;29.00;;;;;-0.50;66.26;99094.44;4965324;28;45283;-92
2022/12/14 01:12:02;;;;;;;;;35.25;32.75;;;;;-1.48;66.46;98933.44;4960559;28;47277;-92
2022/12/14 01:14:28;;;;;;;;;35.00;28.75;;;;;0.56;66.62;99272.94;4957176;28;45373;-90
2022/12/14 01:16:53;;;;;;;;;38.75;28.75;;;;;-0.13;66.05;99164.63;4958153;28;45334;-92
2022/12/14 01:19:18;;;;;;;;;31.50;25.25;;;;;-0.12;66.69;99179.31;4964315;28;45314;-90
2022/12/14 01:21:44;;;;;;;;;38.25;31.25;;;;;0.21;66.82;99217.44;4951266;28;46946;-92
2022/12/14 01:24:10;;;;;;;;;35.75;30.25;;;;;-0.74;66.24;99072.78;4962183;28;45409;-90
2022/12/14 01:26:39;;;;;;;;;42.25;31.75;;;;;-1.40;66.09;98949.00;4963987;28;45449;-90
2022/12/14 01:29:06;;;;;;;;;37.25;30.75;;;;;0.41;66.01;99264.28;4944195;28;45281;-91
2022/12/14 01:31:34;;;;;;;;;33.50;29.75;;;;;-0.64;66.06;99058.94;4962310;28;47845;-91
2022/12/14 01:34:00;;;;;;;;;35.75;30.75;;;;;0.73;66.56;99292.00;4963578;28;45391;-90
2022/12/14 01:36:33;;;;;;;;;37.00;32.75;;;;;-0.46;66.39;99110.03;4948859;28;45319;-92
2022/12/14 01:39:12;;;;;;;;;33.75;30.00;;;;;0.74;66.38;99293.72;4964854;28;45395;-90
2022/12/14 01:41:54;;;;;;;;;30.50;29.00;;;;;-0.45;66.21;99092.72;4946297;28;46502;-89
2022/12/14 01:44:23;;;;;;;;;34.25;28.75;;;;;0.77;66.66;99290.25;4944371;28;45309;-91
2022/12/14 01:46:59;;;;;;;;;29.75;29.25;;;;;-0.34;65.96;99106.56;4963262;28;45311;-91
2022/12/14 01:49:37;;;;;;;;;36.00;33.00;;;;;0.55;67.13;99248.66;4966404;28;45269;-92
2022/12/14 01:52:14;;;;;;;;;32.25;27.75;;;;;-0.48;66.26;99087.53;4960436;28;46276;-91
2022/12/14 01:55:03;;;;;;;;;37.25;28.25;;;;;-1.14;66.62;98966.34;4960044;28;46121;-92
2022/12/14 01:57:51;;;;;;;;;35.75;31.75;;;;;0.17;67.13;99176.75;4942594;28;45598;-92
2022/12/14 02:00:20;;;;;;;;;32.50;31.50;;;;;-1.17;66.36;98937.81;4956956;28;45334;-91
2022/12/14 02:02:56;;;;;;;;;40.25;35.75;;;;;0.62;66.67;99246.91;4965637;28;47287;-91
2022/12/14 02:05:22;;;;;;;;;45.50;40.25;;;;;-1.54;66.45;98888.50;4951230;28;45359;-91
2022/12/14 02:07:51;;;;;;;;;35.75;30.50;;;;;0.35;66.52;99222.69;4949825;28;45247;-90
2022/12/14 02:10:17;;;;;;;;;44.75;37.00;;;;;-0.38;66.63;99117.81;4947099;28;45309;-92
2022/12/14 02:12:56;;;;;;;;;37.25;35.00;;;;;0.30;66.81;99232.19;4944759;28;45933;-90
2022/12/14 02:15:21;;;;;;;;;44.25;38.75;;;;;0.36;67.12;99237.38;4952796;28;45377;-91
2022/12/14 02:17:47;;;;;;;;;43.50;36.25;;;;;-1.00;66.97;99011.34;4944178;28;45349;-91
2022/12/14 02:20:16;;;;;;;;;35.25;33.75;;;;;-1.67;67.41;98898.84;4959409;28;45259;-90
2022/12/14 02:23:11;;;;;;;;;42.25;36.25;;;;;0.63;67.58;99277.28;4946701;28;46977;-92
2022/12/14 02:26:04;;;;;;;;;39.50;33.75;;;;;-0.76;67.63;99053.75;4963842;28;45461;-91
2022/12/14 02:28:35;;;;;;;;;41.50;35.25;;;;;0.62;67.59;99273.81;4949501;28;44763;-91
2022/12/14 02:31:26;;;;;;;;;40.00;34.75;;;;;0.53;68.04;99253.88;4951016;28;45386;-91
2022/12/14 02:34:13;;;;;;;;;33.25;24.25;;;;;0.45;68.33;99247.78;4947212;28;45414;-92
2022/12/14 02:36:59;;;;;;;;;38.00;32.75;;;;;0.21;67.67;99201.00;4944740;28;45363;-91
2022/12/14 02:39:40;;;;;;;;;37.25;31.75;;;;;0.06;68.16;99189.75;4946800;28;45393;-92
2022/12/14 02:42:25;;;;;;;;;43.75;36.25;;;;;0.32;68.40;99227.88;4945125;28;45431;-92
2022/12/14 02:45:01;;;;;;;;;41.75;33.75;;;;;-0.15;68.40;99163.72;4948652;28;46652;-92
2022/12/14 02:47:38;;;;;;;;;42.50;38.00;;;;;-1.12;67.95;98995.75;4942654;28;45360;-91
2022/12/14 02:50:22;;;;;;;;;33.75;32.50;;;;;0.19;68.68;99221.78;4943306;28;45315;-90
2022/12/14 02:52:50;;;;;;;;;35.00;33.25;;;;;0.12;69.18;99218.34;4964961;28;45471;-92
2022/12/14 02:55:49;;;;;;;;;35.75;30.75;;;;;-0.96;69.70;99041.59;4953033;28;47475;-91
2022/12/14 02:58:42;;;;;;;;;33.25;31.75;;;;;0.08;69.57;99202.75;4912717;29;45384;-90
2022/12/14 03:01:12;;;;;;;;;41.50;36.75;;;;;0.06;69.70;99191.47;4914853;29;45472;-90
2022/12/14 03:03:38;;;;;;;;;38.75;34.75;;;;;-0.58;69.55;99123.88;4896203;29;45555;-91
2022/12/14 03:06:27;;;;;;;;;46.25;38.75;;;;;-0.02;69.46;99209.66;4888572;29;47294;-91
2022/12/14 03:09:01;;;;;;;;;42.00;37.75;;;;;-1.44;69.22;98986.16;4890890;29;45309;-91
2022/12/14 03:12:09;;;;;;;;;34.75;34.00;;;;;-0.07;69.72;99198.38;4890246;29;45375;-90
2022/12/14 03:14:51;;;;;;;;;40.75;36.75;;;;;-0.11;69.63;99204.44;4903725;29;45448;-89
2022/12/14 03:17:20;;;;;;;;;47.00;41.75;;;;;-0.62;69.78;99116.03;4886109;29;47249;-92
2022/12/14 03:19:55;;;;;;;;;44.25;39.75;;;;;-0.22;69.64;99194.88;4888834;29;45251;-91
2022/12/14 03:22:27;;;;;;;;;36.75;33.25;;;;;-1.14;69.74;99067.47;4904225;29;45400;-89
2022/12/14 03:25:00;;;;;;;;;36.75;34.00;;;;;-0.27;69.84;99222.59;4897773;29;45409;-92
2022/12/14 03:27:37;;;;;;;;;38.25;29.25;;;;;-0.31;69.88;99215.66;4883018;29;48145;-90
2022/12/14 03:30:07;;;;;;;;;38.50;34.50;;;;;-0.47;69.59;99182.72;4887654;29;45397;-92
2022/12/14 03:32:36;;;;;;;;;40.75;34.00;;;;;-0.94;69.93;99111.63;4904939;29;45355;-91
2022/12/14 03:35:21;;;;;;;;;39.00;36.00;;;;;-1.38;69.80;99030.25;4933771;28;44888;-91
2022/12/14 03:37:53;;;;;;;;;39.75;39.00;;;;;-1.28;70.11;99046.69;4932489;28;45409;-91
2022/12/14 03:40:37;;;;;;;;;41.25;33.50;;;;;-2.01;69.83;98908.22;4952107;28;45072;-90
2022/12/14 03:43:16;;;;;;;;;34.50;32.00;;;;;-1.11;69.64;99072.69;4937230;28;44788;-90
2022/12/14 03:45:48;;;;;;;;;38.75;37.00;;;;;-0.29;69.61;99203.56;4948729;28;45529;-91
2022/12/14 03:48:27;;;;;;;;;34.00;31.00;;;;;-0.93;69.62;99080.53;4937392;28;45314;-90
2022/12/14 03:51:17;;;;;;;;;32.50;29.75;;;;;-2.39;69.42;98821.75;4924303;28;45751;-91
2022/12/14 03:54:07;;;;;;;;;44.50;35.25;;;;;-0.74;69.83;99104.78;4948116;28;45302;-90
2022/12/14 03:57:12;;;;;;;;;47.75;40.25;;;;;-0.40;70.47;99148.13;4927533;28;45431;-90
2022/12/14 03:59:52;;;;;;;;;35.25;27.00;;;;;-0.26;69.85;99166.31;4890240;29;45925;-91
2022/12/14 04:02:55;;;;;;;;;47.00;35.50;;;;;-1.49;69.67;98941.19;4870698;29;45345;-89
2022/12/14 04:05:34;;;;;;;;;23.00;15.25;;;;;-0.24;70.11;99159.41;4885472;29;45450;-90
2022/12/14 04:08:11;;;;;;;;;38.50;35.00;;;;;-0.20;70.53;99162.00;4891314;29;45459;-91
2022/12/14 04:19:30;;;;;;;;;29.25;27.50;;;;;-0.44;70.24;99102.22;4889213;29;44664;-90
2022/12/14 04:22:03;;;;;;;;;48.75;38.25;;;;;-1.32;70.00;98960.28;4876347;29;47331;-91
2022/12/14 04:27:37;;;;;;;;;37.75;35.50;;;;;-0.16;70.39;99142.09;4888514;29;45337;-91
2022/12/14 04:30:05;;;;;;;;;43.25;37.00;;;;;-0.29;70.13;99115.25;4893341;29;45389;-91
2022/12/14 04:32:48;;;;;;;;;47.25;33.25;;;;;-1.81;70.50;98869.44;4912249;29;47160;-90
2022/12/14 04:35:41;;;;;;;;;33.50;28.50;;;;;-0.46;70.35;99089.25;4910593;29;44695;-92
2022/12/14 04:38:27;;;;;;;;;39.00;33.00;;;;;-0.39;70.64;99098.78;4940067;28;45343;-90
2022/12/14 04:41:02;;;;;;;;;38.50;34.25;;;;;-0.13;70.62;99154.22;4956827;28;45545;-91
2022/12/14 04:43:30;;;;;;;;;43.50;35.25;;;;;-0.93;70.08;99023.47;4922902;28;48097;-90
2022/12/14 04:46:06;;;;;;;;;37.00;30.75;;;;;-0.63;70.78;99081.44;4939830;28;45303;-92
2022/12/14 04:48:41;;;;;;;;;33.50;31.50;;;;;-0.86;70.26;99044.22;4945058;28;45287;-92
2022/12/14 04:51:11;;;;;;;;;37.25;32.00;;;;;-0.14;70.93;99165.47;4956334;28;45596;-91
2022/12/14 04:53:40;;;;;;;;;36.75;31.00;;;;;-1.35;71.06;98968.03;4962775;28;46808;-91
2022/12/14 04:56:17;;;;;;;;;36.50;30.25;;;;;-0.12;70.52;99158.53;4952708;28;45244;-91
2022/12/14 04:58:42;;;;;;;;;36.75;34.00;;;;;-0.14;70.64;99160.28;4968203;28;45220;-91
2022/12/14 05:01:15;;;;;;;;;38.00;33.00;;;;;-0.54;70.88;99106.56;4949042;28;45616;-91
2022/12/14 05:04:13;;;;;;;;;36.25;30.75;;;;;-1.33;70.50;98958.53;4964024;28;47250;-91
2022/12/14 05:06:45;;;;;;;;;37.25;31.75;;;;;-1.06;70.63;99016.53;4964244;28;45453;-91
2022/12/14 05:09:23;;;;;;;;;32.50;31.25;;;;;-1.29;70.57;98990.50;4952720;28;45291;-91
2022/12/14 05:11:55;;;;;;;;;27.00;26.00;;;;;-0.10;70.67;99162.88;4964143;28;45286;-91
2022/12/14 05:15:05;;;;;;;;;46.25;37.25;;;;;-0.98;70.12;99012.19;4950367;28;46507;-92
2022/12/14 05:17:35;;;;;;;;;32.75;29.00;;;;;-0.62;70.38;99075.41;4878412;29;45605;-90
2022/12/14 05:20:00;;;;;;;;;37.50;35.25;;;;;-1.26;70.01;98952.50;4874171;29;45286;-92
2022/12/14 05:22:26;;;;;;;;;31.75;30.50;;;;;-0.04;70.22;99160.28;4888622;29;45296;-91
2022/12/14 05:24:51;;;;;;;;;44.25;35.00;;;;;-1.50;70.36;98910.97;4886153;29;48102;-90
2022/12/14 05:27:17;;;;;;;;;40.00;35.25;;;;;-0.43;70.55;99075.41;4872089;29;45299;-91
2022/12/14 05:29:42;;;;;;;;;37.00;31.75;;;;;-0.43;70.26;99088.41;4874947;29;45312;-91
2022/12/14 05:32:11;;;;;;;;;38.75;33.25;;;;;-1.16;70.08;98963.75;4877841;29;45267;-92
2022/12/14 05:34:37;;;;;;;;;36.50;27.50;;;;;-0.40;70.70;99091.00;4876545;29;47326;-91
2022/12/14 05:37:02;;;;;;;;;37.50;31.75;;;;;0.04;70.18;99154.22;4872881;29;45468;-92
2022/12/14 05:39:28;;;;;;;;;37.75;29.50;;;;;0.04;70.69;99151.63;4886279;29;45320;-91
2022/12/14 05:41:54;;;;;;;;;40.50;32.75;;;;;-0.85;70.49;98999.25;4868037;29;45241;-91
2022/12/14 05:44:20;;;;;;;;;28.75;27.50;;;;;0.03;70.69;99163.75;4876428;29;48539;-90
2022/12/14 05:46:46;;;;;;;;;34.25;28.00;;;;;-2.07;70.22;98810.66;4878262;29;45415;-92
2022/12/14 05:49:12;;;;;;;;;37.75;36.25;;;;;-1.91;70.37;98836.56;4875937;29;45190;-91
2022/12/14 05:51:37;;;;;;;;;35.25;31.75;;;;;-1.58;70.66;98907.50;4919327;28;45329;-91
2022/12/14 05:54:04;;;;;;;;;37.00;29.75;;;;;-1.26;70.75;98944.72;4965415;28;48379;-92
2022/12/14 05:56:30;;;;;;;;;32.25;29.00;;;;;-0.43;70.13;99098.78;4969252;28;45319;-91
2022/12/14 05:58:55;;;;;;;;;40.75;33.00;;;;;-0.59;69.96;99064.16;4933458;28;45414;-91
2022/12/14 06:01:21;;;;;;;;;37.50;30.75;;;;;-0.34;70.49;99119.56;4945634;28;45259;-92
2022/12/14 06:03:47;;;;;;;;;35.00;30.25;;;;;-1.53;70.50;98916.16;4946492;28;47995;-91
2022/12/14 06:06:13;;;;;;;;;40.25;35.75;;;;;-0.33;70.95;99113.50;4969702;28;45488;-91
2022/12/14 06:08:45;;;;;;;;;30.25;25.00;;;;;-0.31;70.55;99127.34;4931557;28;45334;-92
2022/12/14 06:11:13;;;;;;;;;31.25;29.75;;;;;-0.88;70.46;99014.81;4943757;28;45432;-91
2022/12/14 06:13:40;;;;;;;;;27.00;19.50;;;;;-1.10;70.32;98994.03;4952442;28;47233;-91
2022/12/14 06:16:17;;;;;;;;;42.00;35.25;;;;;0.08;70.58;99185.41;4963222;28;45241;-92
2022/12/14 06:18:48;;;;;;;;;42.75;34.50;;;;;-0.22;70.39;99145.53;4950997;28;45358;-90
2022/12/14 06:21:15;;;;;;;;;32.25;32.00;;;;;-0.74;70.80;99067.59;4949385;28;44953;-91
2022/12/14 06:23:41;;;;;;;;;28.50;27.50;;;;;-1.07;71.02;98999.22;4948859;28;47439;-90
2022/12/14 06:26:09;;;;;;;;;39.25;33.00;;;;;0.16;70.89;99212.25;4951174;28;45239;-90
2022/12/14 06:28:37;;;;;;;;;37.00;31.00;;;;;-1.48;70.69;98920.47;4954286;28;45409;-91
2022/12/14 06:31:04;;;;;;;;;24.75;16.50;;;;;-1.13;70.88;98968.09;4961256;28;44867;-92
2022/12/14 06:33:34;;;;;;;;;40.25;32.50;;;;;-1.59;70.43;98904.03;4958556;28;45251;-92
2022/12/14 06:36:00;;;;;;;;;35.75;34.75;;;;;-1.79;70.44;98875.50;4972700;28;45521;-91
2022/12/14 06:38:26;;;;;;;;;37.50;34.50;;;;;-1.01;70.60;99007.00;4934639;28;45351;-90
2022/12/14 06:40:51;;;;;;;;;37.00;30.75;;;;;0.05;71.11;99172.41;4948759;28;45317;-91
2022/12/14 06:43:17;;;;;;;;;41.00;31.25;;;;;-0.83;71.34;99020.88;4949886;28;47530;-91
2022/12/14 06:45:43;;;;;;;;;43.50;33.50;;;;;-0.15;70.98;99128.25;4942442;28;45464;-89
2022/12/14 06:48:09;;;;;;;;;37.00;33.25;;;;;0.22;70.88;99194.94;4942240;28;45406;-89
2022/12/14 06:50:34;;;;;;;;;39.25;34.25;;;;;-0.66;70.97;99054.63;4944498;28;45556;-89
2022/12/14 06:53:00;;;;;;;;;36.50;28.25;;;;;-1.01;70.97;98993.19;4961613;28;46918;-89
2022/12/14 06:55:26;;;;;;;;;35.00;32.50;;;;;0.16;70.69;99191.47;4948616;28;45459;-88
2022/12/14 06:57:53;;;;;;;;;39.00;33.75;;;;;-0.11;71.14;99135.16;4960550;28;45247;-89
2022/12/14 07:00:20;;;;;;;;;35.50;30.75;;;;;0.23;71.48;99204.44;4935081;28;45443;-89
2022/12/14 07:02:48;;;;;;;;;45.25;37.75;;;;;-1.68;70.74;98880.69;4948041;28;45494;-89
2022/12/14 07:05:14;;;;;;;;;45.25;30.25;;;;;-2.04;71.08;98846.91;4958492;28;45524;-89
2022/12/14 07:07:40;;;;;;;;;28.25;25.25;;;;;0.17;70.74;99201.00;4942407;28;45340;-89
2022/12/14 07:10:07;;;;;;;;;34.00;32.00;;;;;-0.23;71.39;99151.63;4941861;28;45592;-89
2022/12/14 07:12:33;;;;;;;;;47.75;38.50;;;;;0.17;71.45;99207.94;4944215;28;48019;-89
2022/12/14 07:14:58;;;;;;;;;35.75;29.50;;;;;-0.39;71.29;99136.88;4944915;28;45271;-89
2022/12/14 07:17:24;;;;;;;;;39.75;36.00;;;;;-0.42;70.82;99119.56;4963963;28;45563;-88
2022/12/14 07:19:49;;;;;;;;;38.75;30.75;;;;;-0.60;71.42;99088.38;4950225;28;45334;-89
2022/12/14 07:22:16;;;;;;;;;30.50;26.75;;;;;-0.83;71.41;99060.66;4945438;28;45449;-90
2022/12/14 07:24:42;;;;;;;;;32.00;27.00;;;;;0.22;71.65;99224.38;4944563;28;45458;-88
2022/12/14 07:27:08;;;;;;;;;33.25;30.25;;;;;-0.16;70.79;99173.25;4946321;28;45357;-89
2022/12/14 07:29:33;;;;;;;;;41.00;34.75;;;;;0.25;71.13;99247.78;4942827;28;45381;-88
2022/12/14 07:31:58;;;;;;;;;40.50;36.50;;;;;-1.03;71.02;99041.56;4944355;28;45517;-89
2022/12/14 07:34:24;;;;;;;;;40.75;30.50;;;;;-0.76;71.44;99084.88;4943511;28;45385;-88
2022/12/14 07:36:52;;;;;;;;;38.50;31.00;;;;;-0.42;70.96;99145.53;4942760;28;45334;-89
2022/12/14 07:39:19;;;;;;;;;41.00;33.25;;;;;-0.17;71.59;99181.06;4953132;28;45394;-89
2022/12/14 07:41:47;;;;;;;;;44.50;35.00;;;;;-1.07;71.12;99040.72;4936360;28;45485;-89
2022/12/14 07:44:20;;;;;;;;;31.00;31.00;;;;;0.26;71.82;99278.13;4948195;28;45433;-90
2022/12/14 07:46:45;;;;;;;;;43.25;35.75;;;;;-1.46;71.32;98995.66;4944469;28;45334;-89
2022/12/14 07:49:11;;;;;;;;;36.00;30.25;;;;;-0.15;71.09;99216.56;4947496;28;45440;-87
2022/12/14 07:51:40;;;;;;;;;42.50;35.00;;;;;-0.26;71.33;99182.78;4946891;28;46118;-88
2022/12/14 07:54:06;;;;;;;;;41.50;34.50;;;;;-1.16;71.11;99040.69;4941959;28;45281;-88
2022/12/14 07:56:35;;;;;;;;;39.50;33.00;;;;;0.24;71.15;99291.97;4944795;28;45473;-90
2022/12/14 07:59:02;;;;;;;;;36.75;31.00;;;;;0.21;71.85;99266.84;4949888;28;44862;-89
2022/12/14 08:01:33;;;;;;;;;48.00;33.25;;;;;-0.24;71.87;99207.03;4945813;28;46673;-87
2022/12/14 08:04:03;;;;;;;;;35.75;32.00;;;;;0.05;71.76;99245.16;4949612;28;45283;-88
2022/12/14 08:06:30;;;;;;;;;42.00;35.25;;;;;0.23;71.36;99279.81;4949612;28;44878;-87
2022/12/14 08:08:56;;;;;;;;;40.25;35.00;;;;;-0.80;71.17;99111.72;4947701;28;45255;-89
2022/12/14 08:11:22;;;;;;;;;36.00;32.25;;;;;-1.14;71.21;99070.06;4943851;28;46930;-90
2022/12/14 08:14:07;;;;;;;;;40.50;32.00;;;;;-0.59;71.14;99137.69;4938850;28;45319;-90
2022/12/14 08:16:33;;;;;;;;;39.00;33.50;;;;;-0.95;71.77;99102.16;4953218;28;45266;-91
2022/12/14 08:19:00;;;;;;;;;46.00;35.25;;;;;-0.29;71.70;99206.16;4950838;28;45661;-90
2022/12/14 08:21:27;;;;;;;;;40.50;33.50;;;;;-0.55;71.64;99164.53;4946514;28;45445;-91
2022/12/14 08:23:53;;;;;;;;;42.25;37.50;;;;;0.25;71.52;99293.72;4947607;28;45585;-88
2022/12/14 08:26:19;;;;;;;;;33.00;28.75;;;;;-1.51;71.47;98997.38;4951898;28;45318;-90
2022/12/14 08:28:45;;;;;;;;;35.25;32.25;;;;;0.28;71.32;99293.72;4951086;28;45323;-89
2022/12/14 08:31:13;;;;;;;;;41.75;37.00;;;;;0.29;72.09;99295.44;4949660;28;45421;-90
2022/12/14 08:33:40;;;;;;;;;40.75;35.50;;;;;0.33;70.97;99282.47;4950192;28;45192;-90
2022/12/14 08:36:14;;;;;;;;;42.25;34.25;;;;;-1.18;70.95;99038.09;4964317;28;45275;-92
2022/12/14 08:38:40;;;;;;;;;43.75;39.50;;;;;-0.92;71.08;99097.81;4966205;28;44899;-91
2022/12/14 08:41:08;;;;;;;;;39.75;33.50;;;;;0.01;71.07;99230.44;4972694;28;46872;-91
2022/12/14 08:43:36;;;;;;;;;36.75;32.75;;;;;-0.04;70.95;99245.16;4972931;28;44822;-93
2022/12/14 08:46:03;;;;;;;;;40.50;34.00;;;;;-0.91;71.28;99103.91;4951753;28;45267;-91
2022/12/14 08:48:29;;;;;;;;;35.75;32.50;;;;;-0.20;71.71;99181.91;4951508;28;44849;-91
2022/12/14 08:51:01;;;;;;;;;36.25;33.00;;;;;-0.60;71.09;99119.53;4948380;28;48543;-91
2022/12/14 08:53:27;;;;;;;;;39.25;36.25;;;;;-0.59;71.88;99093.56;4966990;28;45344;-91
2022/12/14 08:56:03;;;;;;;;;36.25;31.75;;;;;0.68;71.05;99298.94;4968615;28;45314;-91
2022/12/14 08:58:29;;;;;;;;;36.00;31.75;;;;;0.39;70.77;99224.38;4966494;28;45013;-90
2022/12/14 09:01:12;;;;;;;;;35.75;33.25;;;;;-0.21;70.78;99118.72;4966714;28;47168;-92
2022/12/14 09:03:44;;;;;;;;;44.75;35.75;;;;;0.25;70.85;99162.00;4965533;28;45377;-91
2022/12/14 09:06:12;;;;;;;;;44.75;39.00;;;;;0.92;70.86;99258.16;4965287;28;45412;-89
2022/12/14 09:08:37;;;;;;;;;42.00;34.50;;;;;0.27;70.71;99141.22;4949264;28;44950;-91
2022/12/14 09:11:04;;;;;;;;;36.50;33.50;;;;;0.26;70.19;99129.06;4950667;28;46260;-88
2022/12/14 09:13:31;;;;;;;;;41.25;35.25;;;;;0.58;70.41;99172.34;4963936;28;45338;-91
2022/12/14 09:16:03;;;;;;;;;45.25;36.75;;;;;1.46;70.56;99331.81;4944888;28;45488;-90
2022/12/14 09:18:29;;;;;;;;;45.75;33.50;;;;;0.71;71.25;99210.50;4948085;28;45259;-91
2022/12/14 09:21:02;;;;;;;;;42.00;37.75;;;;;0.85;71.26;99220.88;4952727;28;45437;-90
2022/12/14 09:23:30;;;;;;;;;38.50;36.25;;;;;0.78;70.74;99212.22;4964995;28;45279;-89
2022/12/14 09:26:03;;;;;;;;;38.00;34.25;;;;;0.77;70.72;99214.81;4944108;28;45406;-91
2022/12/14 09:28:31;;;;;;;;;44.25;38.50;;;;;0.49;70.88;99179.31;4944291;28;45297;-90
2022/12/14 09:30:58;;;;;;;;;40.00;35.50;;;;;0.88;71.05;99231.25;4960564;28;46299;-90
2022/12/14 09:33:27;;;;;;;;;37.00;31.75;;;;;-0.25;70.37;99038.19;4941916;28;45548;-89
2022/12/14 09:35:59;;;;;;;;;40.00;36.00;;;;;1.24;70.72;99292.81;4943991;28;45299;-90
2022/12/14 09:38:25;;;;;;;;;36.25;30.50;;;;;1.70;70.77;99371.66;4958825;28;45630;-88
2022/12/14 09:41:01;;;;;;;;;41.50;34.75;;;;;0.30;70.39;99123.00;4939090;28;46150;-87
2022/12/14 09:43:42;;;;;;;;;48.00;37.00;;;;;0.89;70.53;99226.06;4934766;28;45303;-87
2022/12/14 09:46:49;;;;;;;;;24.75;17.75;;;;;0.76;70.64;99197.47;4946032;28;45515;-87
2022/12/14 09:49:40;;;;;;;;;40.00;38.00;;;;;1.84;70.20;99367.28;4934581;28;45466;-87
2022/12/14 09:52:14;;;;;;;;;46.75;42.50;;;;;1.64;69.90;99324.78;4935670;28;47233;-87
2022/12/14 09:54:43;;;;;;;;;46.50;35.00;;;;;1.95;70.10;99372.44;4943546;28;45263;-87
2022/12/14 09:57:31;;;;;;;;;50.00;39.50;;;;;2.00;70.57;99369.81;4942379;28;45476;-87
2022/12/14 09:59:57;;;;;;;;;37.50;35.00;;;;;1.70;69.90;99309.13;4937886;28;45286;-87
2022/12/14 10:02:39;;;;;;;;;39.00;37.50;;;;;2.16;70.09;99355.84;4948265;28;47006;-86
2022/12/14 10:05:05;;;;;;;;;43.00;38.00;;;;;2.24;69.33;99348.84;4938787;28;45521;-86
2022/12/14 10:08:03;;;;;;;;;46.75;34.00;;;;;1.67;69.26;99249.22;4938226;28;45555;-86
2022/12/14 10:10:49;;;;;;;;;47.75;42.25;;;;;2.07;68.89;99302.00;4938754;28;45362;-88
2022/12/14 10:13:26;;;;;;;;;48.50;40.25;;;;;2.11;68.52;99300.25;4938863;28;46167;-88
2022/12/14 10:16:03;;;;;;;;;36.50;29.50;;;;;2.05;68.68;99258.56;4942867;28;45504;-86
2022/12/14 10:18:31;;;;;;;;;49.75;41.00;;;;;2.81;68.31;99356.28;4949558;28;45414;-89
2022/12/14 10:27:49;;;;;;;;;29.50;27.00;;;;;2.99;67.67;99295.25;4935357;28;45354;-89
2022/12/14 10:30:18;;;;;;;;;46.50;37.75;;;;;3.52;67.82;99365.22;4949608;28;45570;-90
2022/12/14 10:32:51;;;;;;;;;46.00;38.00;;;;;3.31;67.80;99308.84;4946363;28;45387;-90
2022/12/14 10:35:18;;;;;;;;;35.50;34.25;;;;;3.86;68.21;99364.88;4938402;28;47442;-89
2022/12/14 10:37:52;;;;;;;;;40.50;38.25;;;;;3.98;67.45;99363.81;4957126;28;45295;-90
2022/12/14 10:40:30;;;;;;;;;46.25;40.25;;;;;4.03;67.23;99307.13;4948976;28;44882;-88
2022/12/14 10:43:03;;;;;;;;;42.75;38.75;;;;;3.36;66.83;99182.53;4943801;28;45294;-90
2022/12/14 10:45:42;;;;;;;;;43.75;37.00;;;;;4.54;65.84;99353.47;4947195;28;45437;-91
2022/12/14 10:48:49;;;;;;;;;46.75;39.75;;;;;4.56;64.94;99364.81;4945491;28;45305;-90
2022/12/14 10:51:39;;;;;;;;;49.25;39.25;;;;;3.01;65.64;99117.69;4969978;28;45504;-91
2022/12/14 10:54:37;;;;;;;;;48.75;37.75;;;;;3.65;65.33;99230.94;4946813;28;45358;-91
2022/12/14 10:57:04;;;;;;;;;32.25;30.00;;;;;3.98;66.09;99316.75;4906470;29;46603;-93
2022/12/14 10:59:39;;;;;;;;;41.25;37.50;;;;;3.56;65.62;99246.72;4903017;29;45487;-91
2022/12/14 11:02:14;;;;;;;;;45.50;38.75;;;;;3.42;65.50;99241.69;4907638;29;45353;-89
2022/12/14 11:05:00;;;;;;;;;44.00;38.50;;;;;4.17;66.09;99370.56;4908240;29;45557;-90
2022/12/14 11:07:38;;;;;;;;;54.00;44.50;;;;;4.13;65.90;99374.13;4922017;28;47108;-92
2022/12/14 11:10:19;;;;;;;;;54.25;40.75;;;;;4.06;66.21;99383.78;4916425;28;45472;-91
2022/12/14 11:13:02;;;;;;;;;46.75;38.75;;;;;3.99;66.07;99382.13;4915074;28;45553;-91
2022/12/14 11:15:32;;;;;;;;;51.50;43.50;;;;;3.96;66.25;99379.53;4914868;28;45546;-91
2022/12/14 11:18:15;;;;;;;;;55.75;41.00;;;;;3.92;66.51;99370.88;4935931;28;45504;-90
2022/12/14 11:21:03;;;;;;;;;52.25;43.00;;;;;3.23;66.47;99274.97;4900503;29;45431;-90
2022/12/14 11:23:39;;;;;;;;;55.00;41.50;;;;;3.85;67.05;99376.19;4910046;29;45409;-89
2022/12/14 11:26:14;;;;;;;;;41.25;38.50;;;;;2.97;66.96;99241.31;4907127;29;45515;-90
2022/12/14 11:28:51;;;;;;;;;59.75;45.00;;;;;3.83;65.89;99381.44;4904405;29;45432;-90
2022/12/14 11:31:21;;;;;;;;;49.50;43.50;;;;;3.83;66.75;99375.34;4890691;28;46031;-92
2022/12/14 11:33:55;;;;;;;;;53.25;42.00;;;;;3.30;66.10;99287.09;4956628;28;45477;-94
2022/12/14 11:36:29;;;;;;;;;49.25;40.75;;;;;3.42;66.10;99330.50;4962155;28;44754;-94
2022/12/14 11:39:06;;;;;;;;;53.50;41.50;;;;;2.59;65.70;99183.38;4963586;28;46613;-92
2022/12/14 11:41:42;;;;;;;;;53.75;40.75;;;;;3.86;66.23;99401.47;4959830;28;45345;-90
2022/12/14 11:44:14;;;;;;;;;39.50;36.50;;;;;3.91;66.12;99392.66;4957158;28;45270;-90
2022/12/14 11:46:56;;;;;;;;;54.00;43.75;;;;;3.65;65.90;99338.09;4957465;28;45635;-91
2022/12/14 11:49:38;;;;;;;;;55.00;41.00;;;;;4.05;65.41;99397.75;4942156;28;46720;-92
2022/12/14 11:52:04;;;;;;;;;53.50;42.25;;;;;4.17;65.69;99401.09;4941240;28;45528;-88
2022/12/14 11:54:55;;;;;;;;;58.75;45.50;;;;;4.31;65.41;99393.91;4941308;28;45532;-88
2022/12/14 11:57:26;;;;;;;;;49.75;41.50;;;;;3.64;65.18;99278.84;4930307;28;45533;-89
2022/12/14 12:00:27;;;;;;;;;53.50;41.50;;;;;4.37;65.80;99382.50;4941026;28;46155;-86
2022/12/14 12:03:00;;;;;;;;;48.75;40.25;;;;;3.51;65.70;99217.19;4914565;28;45682;-88
2022/12/14 12:05:29;;;;;;;;;53.50;43.25;;;;;4.62;65.92;99383.03;4916221;28;45483;-88
2022/12/14 12:07:57;;;;;;;;;48.50;43.25;;;;;4.79;65.80;99383.63;4910085;28;45431;-88